createdAt,value
2017-03-10T00:00:04.991Z,52.42
2017-03-10T00:00:45.639Z,52.33
2017-03-10T00:01:26.280Z,52.42
2017-03-10T00:02:06.932Z,52.33
2017-03-10T00:02:47.571Z,52.33
2017-03-10T00:03:28.215Z,52.52
2017-03-10T00:04:08.870Z,52.42
2017-03-10T00:04:49.521Z,52.42
2017-03-10T00:05:30.216Z,52.23
2017-03-10T00:06:10.859Z,52.52
2017-03-10T00:06:51.505Z,52.52
2017-03-10T00:07:32.136Z,52.33
2017-03-10T00:08:12.806Z,52.42
2017-03-10T00:08:53.435Z,52.42
2017-03-10T00:09:34.085Z,52.23
2017-03-10T00:10:14.733Z,52.61
2017-03-10T00:10:55.376Z,52.42
2017-03-10T00:11:36.031Z,52.33
2017-03-10T00:12:16.689Z,52.52
2017-03-10T00:12:57.330Z,52.71
2017-03-10T00:13:37.979Z,52.42
2017-03-10T00:14:18.763Z,52.61
2017-03-10T00:14:59.410Z,52.52
2017-03-10T00:15:40.053Z,52.61
2017-03-10T00:16:20.785Z,52.42
2017-03-10T00:17:01.409Z,52.61
2017-03-10T00:17:42.045Z,52.61
2017-03-10T00:18:22.669Z,52.33
2017-03-10T00:19:03.424Z,52.33
2017-03-10T00:19:44.087Z,52.61
2017-03-10T00:20:24.709Z,52.52
2017-03-10T00:21:05.338Z,52.42
2017-03-10T00:21:45.994Z,52.42
2017-03-10T00:22:26.630Z,52.23
2017-03-10T00:23:07.282Z,52.4
2017-03-10T00:23:48.013Z,52.42
2017-03-10T00:24:28.713Z,52.33
2017-03-10T00:25:09.413Z,52.42
2017-03-10T00:25:50.077Z,52.42
2017-03-10T00:26:30.711Z,52.61
2017-03-10T00:27:11.447Z,52.61
2017-03-10T00:27:52.079Z,52.52
2017-03-10T00:28:32.712Z,52.61
2017-03-10T00:29:13.423Z,52.42
2017-03-10T00:29:54.084Z,52.42
2017-03-10T00:30:34.747Z,52.52
2017-03-10T00:31:15.438Z,52.61
2017-03-10T00:31:56.183Z,52.52
2017-03-10T00:32:36.843Z,52.33
2017-03-10T00:33:17.495Z,52.33
2017-03-10T00:33:58.145Z,52.42
2017-03-10T00:34:38.809Z,52.42
2017-03-10T00:35:19.454Z,52.42
2017-03-10T00:36:00.080Z,52.61
2017-03-10T00:36:40.780Z,52.52
2017-03-10T00:37:21.425Z,52.61
2017-03-10T00:38:02.072Z,52.42
2017-03-10T00:38:42.821Z,52.33
2017-03-10T00:39:23.469Z,52.42
2017-03-10T00:40:04.114Z,52.42
2017-03-10T00:40:44.760Z,52.42
2017-03-10T00:41:25.415Z,52.71
2017-03-10T00:42:06.051Z,52.42
2017-03-10T00:42:46.695Z,52.52
2017-03-10T00:43:27.332Z,52.71
2017-03-10T00:44:07.980Z,52.71
2017-03-10T00:44:48.689Z,52.81
2017-03-10T00:45:29.308Z,52.42
2017-03-10T00:46:09.962Z,52.49
2017-03-10T00:46:50.572Z,52.52
2017-03-10T00:47:31.207Z,52.42
2017-03-10T00:48:11.843Z,52.61
2017-03-10T00:48:52.496Z,52.42
2017-03-10T00:49:33.131Z,52.23
2017-03-10T00:50:13.770Z,52.33
2017-03-10T00:50:54.425Z,52.42
2017-03-10T00:51:35.069Z,52.61
2017-03-10T00:52:15.714Z,52.52
2017-03-10T00:52:56.434Z,52.33
2017-03-10T00:53:37.065Z,52.33
2017-03-10T00:54:17.756Z,52.52
2017-03-10T00:54:58.422Z,52.42
2017-03-10T00:55:39.066Z,52.81
2017-03-10T00:56:19.704Z,52.78
2017-03-10T00:57:00.339Z,52.61
2017-03-10T00:57:40.974Z,52.42
2017-03-10T00:58:21.606Z,52.61
2017-03-10T00:59:02.291Z,52.42
2017-03-10T00:59:42.936Z,52.42
2017-03-10T01:00:23.566Z,52.33
2017-03-10T01:01:04.198Z,52.42
2017-03-10T01:01:44.830Z,52.42
2017-03-10T01:02:25.476Z,52.61
2017-03-10T01:03:06.124Z,52.33
2017-03-10T01:03:46.752Z,52.33
2017-03-10T01:04:27.368Z,52.33
2017-03-10T01:05:08.045Z,52.33
2017-03-10T01:05:48.736Z,52.4
2017-03-10T01:06:29.462Z,52.42
2017-03-10T01:07:10.111Z,52.42
2017-03-10T01:07:50.763Z,52.59
2017-03-10T01:08:31.403Z,52.4
2017-03-10T01:09:12.035Z,52.49
2017-03-10T01:09:52.743Z,52.61
2017-03-10T01:10:33.384Z,52.33
2017-03-10T01:11:14.009Z,52.4
2017-03-10T01:11:54.649Z,52.3
2017-03-10T01:12:35.280Z,52.42
2017-03-10T01:13:15.922Z,52.42
2017-03-10T01:13:56.572Z,52.4
2017-03-10T01:14:37.198Z,52.59
2017-03-10T01:15:17.833Z,52.69
2017-03-10T01:15:58.471Z,52.78
2017-03-10T01:16:39.155Z,52.61
2017-03-10T01:17:19.785Z,52.78
2017-03-10T01:18:00.433Z,52.69
2017-03-10T01:18:41.059Z,52.59
2017-03-10T01:19:21.693Z,52.42
2017-03-10T01:20:02.314Z,52.69
2017-03-10T01:20:42.941Z,52.42
2017-03-10T01:21:23.568Z,52.3
2017-03-10T01:22:04.220Z,52.59
2017-03-10T01:22:44.856Z,52.42
2017-03-10T01:23:25.475Z,52.81
2017-03-10T01:24:06.116Z,52.71
2017-03-10T01:24:46.748Z,52.69
2017-03-10T01:25:27.377Z,52.69
2017-03-10T01:26:08.022Z,52.81
2017-03-10T01:26:48.660Z,52.71
2017-03-10T01:27:29.292Z,52.81
2017-03-10T01:28:09.921Z,52.69
2017-03-10T01:28:50.566Z,52.71
2017-03-10T01:29:31.189Z,52.91
2017-03-10T01:30:11.828Z,52.59
2017-03-10T01:30:52.455Z,52.91
2017-03-10T01:31:33.076Z,52.81
2017-03-10T01:32:13.831Z,52.59
2017-03-10T01:32:54.466Z,52.42
2017-03-10T01:33:35.109Z,52.71
2017-03-10T01:34:15.752Z,52.91
2017-03-10T01:34:56.442Z,52.69
2017-03-10T01:35:37.065Z,52.4
2017-03-10T01:36:17.728Z,52.69
2017-03-10T01:36:58.360Z,52.3
2017-03-10T01:37:38.998Z,52.69
2017-03-10T01:38:19.627Z,52.42
2017-03-10T01:39:00.260Z,52.61
2017-03-10T01:39:40.923Z,52.78
2017-03-10T01:40:21.578Z,52.42
2017-03-10T01:41:02.214Z,52.52
2017-03-10T01:41:42.869Z,52.52
2017-03-10T01:42:23.519Z,52.3
2017-03-10T01:43:04.176Z,52.3
2017-03-10T01:43:44.828Z,52.23
2017-03-10T01:44:25.459Z,52.42
2017-03-10T01:45:06.107Z,52.3
2017-03-10T01:45:46.742Z,52.2
2017-03-10T01:46:27.370Z,52.33
2017-03-10T01:47:08.001Z,52.4
2017-03-10T01:47:48.648Z,52.59
2017-03-10T01:48:29.289Z,52.52
2017-03-10T01:49:10.029Z,52.52
2017-03-10T01:49:50.675Z,52.81
2017-03-10T01:50:31.327Z,52.59
2017-03-10T01:51:11.980Z,52.49
2017-03-10T01:51:52.631Z,52.59
2017-03-10T01:52:33.286Z,52.71
2017-03-10T01:53:13.998Z,52.71
2017-03-10T01:53:54.642Z,52.52
2017-03-10T01:54:35.280Z,52.3
2017-03-10T01:55:15.983Z,52.71
2017-03-10T01:55:56.620Z,52.4
2017-03-10T01:56:37.262Z,52.42
2017-03-10T01:57:17.902Z,52.61
2017-03-10T01:57:58.524Z,52.49
2017-03-10T01:58:39.148Z,52.49
2017-03-10T01:59:19.778Z,52.52
2017-03-10T02:00:00.447Z,52.81
2017-03-10T02:00:41.081Z,52.59
2017-03-10T02:01:21.718Z,52.49
2017-03-10T02:02:02.937Z,52.69
2017-03-10T02:02:43.577Z,52.59
2017-03-10T02:03:24.312Z,52.69
2017-03-10T02:04:04.932Z,52.78
2017-03-10T02:04:45.567Z,52.59
2017-03-10T02:05:26.208Z,52.42
2017-03-10T02:06:06.854Z,52.59
2017-03-10T02:06:47.495Z,52.3
2017-03-10T02:07:28.130Z,52.59
2017-03-10T02:08:08.774Z,52.4
2017-03-10T02:08:49.430Z,52.4
2017-03-10T02:09:30.078Z,52.4
2017-03-10T02:10:10.730Z,52.3
2017-03-10T02:10:51.377Z,52.3
2017-03-10T02:11:32.086Z,52.59
2017-03-10T02:12:12.722Z,52.4
2017-03-10T02:12:53.350Z,52.3
2017-03-10T02:13:34.074Z,52.4
2017-03-10T02:14:14.702Z,52.4
2017-03-10T02:14:55.325Z,52.78
2017-03-10T02:15:36.040Z,52.4
2017-03-10T02:16:16.668Z,52.61
2017-03-10T02:16:57.311Z,52.42
2017-03-10T02:17:38.014Z,52.3
2017-03-10T02:18:18.646Z,52.3
2017-03-10T02:18:59.274Z,52.2
2017-03-10T02:19:39.917Z,52.2
2017-03-10T02:20:20.551Z,52.61
2017-03-10T02:21:01.190Z,52.42
2017-03-10T02:21:41.870Z,52.78
2017-03-10T02:22:22.498Z,52.69
2017-03-10T02:23:03.175Z,52.87
2017-03-10T02:23:43.822Z,52.69
2017-03-10T02:24:24.453Z,52.81
2017-03-10T02:25:05.099Z,52.61
2017-03-10T02:25:45.795Z,52.59
2017-03-10T02:26:26.454Z,52.61
2017-03-10T02:27:07.090Z,52.61
2017-03-10T02:27:47.733Z,52.61
2017-03-10T02:28:28.375Z,52.69
2017-03-10T02:29:09.058Z,52.69
2017-03-10T02:29:49.715Z,52.61
2017-03-10T02:30:30.350Z,52.71
2017-03-10T02:31:10.970Z,52.69
2017-03-10T02:31:51.612Z,52.71
2017-03-10T02:32:32.253Z,52.78
2017-03-10T02:33:12.893Z,52.69
2017-03-10T02:33:53.524Z,52.61
2017-03-10T02:34:34.176Z,52.81
2017-03-10T02:35:14.870Z,52.69
2017-03-10T02:35:55.500Z,52.81
2017-03-10T02:36:36.150Z,52.69
2017-03-10T02:37:16.779Z,52.78
2017-03-10T02:37:57.418Z,52.78
2017-03-10T02:38:38.095Z,52.69
2017-03-10T02:39:18.765Z,52.78
2017-03-10T02:39:59.403Z,52.59
2017-03-10T02:40:40.023Z,52.81
2017-03-10T02:41:20.672Z,52.69
2017-03-10T02:42:01.314Z,52.78
2017-03-10T02:42:41.950Z,52.81
2017-03-10T02:43:22.578Z,52.69
2017-03-10T02:44:03.218Z,52.81
2017-03-10T02:44:43.848Z,52.71
2017-03-10T02:45:24.590Z,52.3
2017-03-10T02:46:05.219Z,52.49
2017-03-10T02:46:45.851Z,52.69
2017-03-10T02:47:26.483Z,52.4
2017-03-10T02:48:07.113Z,52.3
2017-03-10T02:48:47.746Z,52.78
2017-03-10T02:49:28.440Z,52.78
2017-03-10T02:50:09.070Z,52.69
2017-03-10T02:50:49.710Z,52.59
2017-03-10T02:51:30.398Z,52.52
2017-03-10T02:52:11.053Z,52.42
2017-03-10T02:52:51.666Z,52.69
2017-03-10T02:53:32.292Z,52.71
2017-03-10T02:54:12.920Z,52.4
2017-03-10T02:54:54.323Z,52.81
2017-03-10T02:55:35.003Z,52.69
2017-03-10T02:56:15.646Z,52.78
2017-03-10T02:56:56.282Z,52.4
2017-03-10T02:57:36.924Z,52.4
2017-03-10T02:58:17.544Z,52.69
2017-03-10T02:58:58.174Z,52.81
2017-03-10T02:59:38.856Z,52.78
2017-03-10T03:00:19.555Z,52.4
2017-03-10T03:01:00.179Z,52.59
2017-03-10T03:01:40.813Z,52.69
2017-03-10T03:02:21.459Z,52.78
2017-03-10T03:03:02.104Z,52.71
2017-03-10T03:03:42.759Z,52.69
2017-03-10T03:04:23.401Z,52.69
2017-03-10T03:05:04.025Z,52.59
2017-03-10T03:05:44.719Z,52.61
2017-03-10T03:06:25.355Z,52.59
2017-03-10T03:07:05.990Z,52.49
2017-03-10T03:07:46.623Z,52.49
2017-03-10T03:08:27.258Z,52.3
2017-03-10T03:09:07.887Z,52.49
2017-03-10T03:09:48.532Z,52.78
2017-03-10T03:10:29.165Z,52.49
2017-03-10T03:11:09.853Z,52.61
2017-03-10T03:11:50.506Z,52.2
2017-03-10T03:12:31.144Z,52.4
2017-03-10T03:13:11.794Z,52.3
2017-03-10T03:13:52.423Z,52.3
2017-03-10T03:14:33.068Z,52.52
2017-03-10T03:15:13.704Z,52.49
2017-03-10T03:15:54.339Z,52.49
2017-03-10T03:16:34.978Z,52.4
2017-03-10T03:17:15.668Z,52.3
2017-03-10T03:17:56.299Z,52.3
2017-03-10T03:18:36.931Z,52.49
2017-03-10T03:19:17.568Z,52.11
2017-03-10T03:19:58.200Z,52.42
2017-03-10T03:20:38.836Z,52.3
2017-03-10T03:21:19.502Z,52.11
2017-03-10T03:22:00.172Z,52.23
2017-03-10T03:22:40.855Z,52.3
2017-03-10T03:23:21.450Z,52.3
2017-03-10T03:24:02.077Z,52.2
2017-03-10T03:24:42.711Z,52.23
2017-03-10T03:25:23.345Z,52.4
2017-03-10T03:26:04.015Z,52.3
2017-03-10T03:26:44.706Z,52.3
2017-03-10T03:27:25.274Z,52.11
2017-03-10T03:28:05.910Z,52.3
2017-03-10T03:28:46.544Z,52.3
2017-03-10T03:29:27.182Z,52.3
2017-03-10T03:30:07.850Z,52.4
2017-03-10T03:30:48.477Z,52.3
2017-03-10T03:31:29.103Z,52.4
2017-03-10T03:32:09.804Z,52.3
2017-03-10T03:32:50.440Z,52.4
2017-03-10T03:33:31.063Z,52.3
2017-03-10T03:34:11.760Z,52.52
2017-03-10T03:34:52.390Z,52.2
2017-03-10T03:35:33.010Z,52.2
2017-03-10T03:36:13.639Z,52.4
2017-03-10T03:36:54.277Z,52.4
2017-03-10T03:37:34.908Z,52.2
2017-03-10T03:38:15.633Z,52.11
2017-03-10T03:38:56.288Z,52.3
2017-03-10T03:39:36.931Z,52.11
2017-03-10T03:40:17.559Z,52.2
2017-03-10T03:40:58.186Z,52.3
2017-03-10T03:41:38.825Z,52.01
2017-03-10T03:42:19.465Z,52.01
2017-03-10T03:43:00.104Z,52.01
2017-03-10T03:43:40.721Z,52.2
2017-03-10T03:44:21.351Z,51.82
2017-03-10T03:45:02.024Z,52.4
2017-03-10T03:45:42.650Z,52.11
2017-03-10T03:46:23.301Z,52.3
2017-03-10T03:47:03.945Z,52.11
2017-03-10T03:47:44.588Z,52.2
2017-03-10T03:48:25.226Z,52.3
2017-03-10T03:49:05.863Z,51.92
2017-03-10T03:49:46.495Z,51.92
2017-03-10T03:50:27.119Z,51.82
2017-03-10T03:51:07.768Z,52.11
2017-03-10T03:51:48.435Z,51.92
2017-03-10T03:52:29.060Z,52.11
2017-03-10T03:53:09.700Z,52.11
2017-03-10T03:53:50.326Z,51.92
2017-03-10T03:54:30.967Z,52.11
2017-03-10T03:55:11.593Z,52.01
2017-03-10T03:55:52.228Z,51.82
2017-03-10T03:56:32.853Z,51.92
2017-03-10T03:57:13.526Z,51.62
2017-03-10T03:57:54.164Z,51.72
2017-03-10T03:58:34.850Z,51.72
2017-03-10T03:59:15.496Z,51.72
2017-03-10T03:59:56.125Z,51.72
2017-03-10T04:00:36.755Z,51.75
2017-03-10T04:01:17.477Z,51.72
2017-03-10T04:01:58.201Z,51.82
2017-03-10T04:02:38.826Z,51.62
2017-03-10T04:03:19.468Z,51.53
2017-03-10T04:04:00.097Z,51.46
2017-03-10T04:04:40.732Z,51.43
2017-03-10T04:05:21.366Z,51.62
2017-03-10T04:06:01.993Z,51.84
2017-03-10T04:06:42.619Z,51.53
2017-03-10T04:07:23.244Z,51.53
2017-03-10T04:08:03.881Z,51.62
2017-03-10T04:08:44.546Z,51.62
2017-03-10T04:09:25.182Z,51.82
2017-03-10T04:10:05.811Z,51.72
2017-03-10T04:10:46.489Z,51.72
2017-03-10T04:11:27.144Z,51.92
2017-03-10T04:12:07.788Z,51.75
2017-03-10T04:12:48.425Z,51.72
2017-03-10T04:13:29.063Z,51.62
2017-03-10T04:14:09.700Z,51.82
2017-03-10T04:14:50.320Z,51.82
2017-03-10T04:15:31.003Z,51.82
2017-03-10T04:16:11.631Z,51.53
2017-03-10T04:16:52.277Z,51.82
2017-03-10T04:17:32.979Z,51.82
2017-03-10T04:18:13.620Z,51.82
2017-03-10T04:18:54.244Z,51.62
2017-03-10T04:19:34.927Z,51.62
2017-03-10T04:20:15.571Z,51.14
2017-03-10T04:20:56.212Z,51.34
2017-03-10T04:21:36.982Z,51.43
2017-03-10T04:22:17.621Z,51.62
2017-03-10T04:22:58.253Z,51.53
2017-03-10T04:23:38.897Z,51.82
2017-03-10T04:24:19.540Z,51.53
2017-03-10T04:25:00.158Z,51.82
2017-03-10T04:25:40.797Z,51.24
2017-03-10T04:26:21.459Z,50.95
2017-03-10T04:27:02.111Z,51.05
2017-03-10T04:27:42.742Z,51.05
2017-03-10T04:28:23.372Z,51.14
2017-03-10T04:29:04.025Z,50.85
2017-03-10T04:29:44.660Z,50.78
2017-03-10T04:30:25.335Z,50.85
2017-03-10T04:31:05.982Z,51.05
2017-03-10T04:31:46.706Z,50.85
2017-03-10T04:32:27.408Z,50.85
2017-03-10T04:33:08.046Z,51.14
2017-03-10T04:33:48.672Z,51.14
2017-03-10T04:34:29.307Z,51.14
2017-03-10T04:35:09.998Z,50.98
2017-03-10T04:35:50.652Z,50.95
2017-03-10T04:36:31.330Z,51.14
2017-03-10T04:37:12.053Z,51.05
2017-03-10T04:37:52.680Z,51.14
2017-03-10T04:38:33.325Z,50.95
2017-03-10T04:39:13.979Z,50.95
2017-03-10T04:39:54.636Z,50.95
2017-03-10T04:40:35.307Z,50.95
2017-03-10T04:41:15.941Z,50.76
2017-03-10T04:41:56.592Z,51.14
2017-03-10T04:42:37.199Z,50.95
2017-03-10T04:43:17.844Z,50.95
2017-03-10T04:43:58.497Z,51.14
2017-03-10T04:44:39.154Z,51.05
2017-03-10T04:45:19.801Z,50.76
2017-03-10T04:46:00.438Z,50.66
2017-03-10T04:46:41.059Z,50.95
2017-03-10T04:47:21.697Z,50.95
2017-03-10T04:48:02.320Z,50.76
2017-03-10T04:48:42.966Z,50.76
2017-03-10T04:49:23.617Z,50.95
2017-03-10T04:50:04.261Z,50.85
2017-03-10T04:50:44.890Z,50.95
2017-03-10T04:51:25.537Z,50.76
2017-03-10T04:52:06.187Z,50.95
2017-03-10T04:52:46.818Z,50.76
2017-03-10T04:53:27.456Z,50.85
2017-03-10T04:54:08.085Z,50.76
2017-03-10T04:54:48.707Z,50.85
2017-03-10T04:55:29.401Z,50.85
2017-03-10T04:56:10.132Z,50.95
2017-03-10T04:56:50.762Z,50.95
2017-03-10T04:57:31.393Z,50.95
2017-03-10T04:58:12.068Z,50.85
2017-03-10T04:58:52.720Z,50.95
2017-03-10T04:59:33.367Z,51.05
2017-03-10T05:00:14.000Z,51.05
2017-03-10T05:00:54.625Z,50.85
2017-03-10T05:01:35.259Z,51.24
2017-03-10T05:02:15.915Z,51.14
2017-03-10T05:02:56.547Z,51.53
2017-03-10T05:03:37.180Z,51.14
2017-03-10T05:04:17.821Z,51.34
2017-03-10T05:04:58.449Z,51.24
2017-03-10T05:05:39.089Z,51.05
2017-03-10T05:06:19.723Z,51.14
2017-03-10T05:07:00.351Z,51.05
2017-03-10T05:07:40.983Z,50.85
2017-03-10T05:08:21.616Z,50.95
2017-03-10T05:09:02.251Z,50.76
2017-03-10T05:09:43.034Z,50.76
2017-03-10T05:10:23.652Z,50.76
2017-03-10T05:11:04.287Z,50.85
2017-03-10T05:11:44.919Z,50.85
2017-03-10T05:12:25.549Z,50.76
2017-03-10T05:13:06.182Z,50.95
2017-03-10T05:13:46.876Z,50.95
2017-03-10T05:14:27.530Z,50.76
2017-03-10T05:15:08.175Z,50.76
2017-03-10T05:15:48.835Z,50.76
2017-03-10T05:16:29.475Z,50.76
2017-03-10T05:17:10.145Z,50.57
2017-03-10T05:17:50.784Z,50.85
2017-03-10T05:18:31.523Z,50.66
2017-03-10T05:19:12.158Z,50.76
2017-03-10T05:19:52.799Z,50.85
2017-03-10T05:20:33.424Z,50.57
2017-03-10T05:21:14.062Z,50.57
2017-03-10T05:21:54.699Z,50.57
2017-03-10T05:22:35.329Z,50.66
2017-03-10T05:23:15.969Z,50.76
2017-03-10T05:23:56.616Z,50.66
2017-03-10T05:24:37.255Z,50.76
2017-03-10T05:25:17.914Z,50.47
2017-03-10T05:25:58.580Z,50.85
2017-03-10T05:26:39.230Z,50.95
2017-03-10T05:27:19.894Z,50.76
2017-03-10T05:28:00.541Z,50.95
2017-03-10T05:28:41.180Z,50.76
2017-03-10T05:29:21.807Z,51.05
2017-03-10T05:30:02.454Z,51.14
2017-03-10T05:30:43.150Z,50.95
2017-03-10T05:31:23.861Z,50.85
2017-03-10T05:32:04.497Z,50.76
2017-03-10T05:32:45.133Z,51.24
2017-03-10T05:33:25.756Z,50.85
2017-03-10T05:34:06.399Z,51.14
2017-03-10T05:34:47.061Z,50.85
2017-03-10T05:35:27.693Z,50.95
2017-03-10T05:36:08.332Z,51.14
2017-03-10T05:36:48.955Z,51.14
2017-03-10T05:37:29.614Z,50.95
2017-03-10T05:38:10.237Z,50.95
2017-03-10T05:38:50.885Z,51.14
2017-03-10T05:39:31.520Z,50.95
2017-03-10T05:40:12.141Z,51.14
2017-03-10T05:40:52.797Z,51.05
2017-03-10T05:41:33.447Z,51.24
2017-03-10T05:42:14.089Z,51.53
2017-03-10T05:42:54.706Z,51.82
2017-03-10T05:43:35.353Z,51.82
2017-03-10T05:44:15.978Z,51.82
2017-03-10T05:44:56.596Z,51.14
2017-03-10T05:45:37.221Z,51.53
2017-03-10T05:46:17.862Z,51.24
2017-03-10T05:46:58.511Z,51.14
2017-03-10T05:47:39.166Z,50.95
2017-03-10T05:48:19.814Z,51.24
2017-03-10T05:49:00.428Z,50.85
2017-03-10T05:49:41.103Z,51.05
2017-03-10T05:50:21.739Z,51.14
2017-03-10T05:51:02.374Z,51.14
2017-03-10T05:51:42.999Z,51.14
2017-03-10T05:52:23.637Z,51.14
2017-03-10T05:53:04.301Z,51.05
2017-03-10T05:53:44.958Z,51.34
2017-03-10T05:54:25.591Z,51.14
2017-03-10T05:55:06.221Z,51.24
2017-03-10T05:55:46.874Z,51.05
2017-03-10T05:56:27.515Z,50.85
2017-03-10T05:57:08.157Z,51.05
2017-03-10T05:57:48.811Z,51.14
2017-03-10T05:58:29.444Z,51.14
2017-03-10T05:59:10.074Z,51.24
2017-03-10T05:59:50.707Z,51.14
2017-03-10T06:00:31.330Z,51.14
2017-03-10T06:01:12.007Z,51.05
2017-03-10T06:01:52.674Z,51.24
2017-03-10T06:02:33.294Z,51.14
2017-03-10T06:03:13.914Z,51.05
2017-03-10T06:03:54.535Z,51.14
2017-03-10T06:04:35.191Z,51.14
2017-03-10T06:05:15.837Z,51.05
2017-03-10T06:05:56.458Z,51.14
2017-03-10T06:06:37.094Z,50.85
2017-03-10T06:07:17.732Z,50.76
2017-03-10T06:07:58.362Z,50.85
2017-03-10T06:08:38.998Z,50.95
2017-03-10T06:09:19.639Z,50.76
2017-03-10T06:10:00.260Z,51.14
2017-03-10T06:10:40.906Z,50.85
2017-03-10T06:11:21.548Z,50.85
2017-03-10T06:12:02.175Z,51.14
2017-03-10T06:12:42.834Z,51.14
2017-03-10T06:13:23.538Z,51.34
2017-03-10T06:14:04.182Z,50.95
2017-03-10T06:14:44.881Z,50.85
2017-03-10T06:15:25.439Z,50.85
2017-03-10T06:16:06.085Z,51.14
2017-03-10T06:16:47.318Z,51.05
2017-03-10T06:17:27.392Z,51.14
2017-03-10T06:18:08.016Z,51.14
2017-03-10T06:18:48.706Z,50.95
2017-03-10T06:19:29.298Z,51.05
2017-03-10T06:20:09.935Z,51.14
2017-03-10T06:20:50.567Z,51.24
2017-03-10T06:21:31.212Z,51.82
2017-03-10T06:22:11.845Z,51.53
2017-03-10T06:22:52.479Z,51.53
2017-03-10T06:23:33.122Z,51.14
2017-03-10T06:24:13.776Z,51.82
2017-03-10T06:24:54.416Z,51.53
2017-03-10T06:25:35.066Z,51.14
2017-03-10T06:26:15.689Z,51.62
2017-03-10T06:26:56.332Z,51.34
2017-03-10T06:27:36.982Z,51.24
2017-03-10T06:28:17.642Z,51.24
2017-03-10T06:28:58.296Z,51.43
2017-03-10T06:29:38.941Z,51.14
2017-03-10T06:30:19.639Z,51.14
2017-03-10T06:31:00.278Z,50.95
2017-03-10T06:31:40.904Z,51.05
2017-03-10T06:32:21.606Z,51.14
2017-03-10T06:33:02.250Z,51.14
2017-03-10T06:33:42.884Z,51.14
2017-03-10T06:34:23.578Z,50.85
2017-03-10T06:35:04.219Z,50.76
2017-03-10T06:35:44.852Z,50.95
2017-03-10T06:36:25.579Z,50.95
2017-03-10T06:37:06.240Z,50.76
2017-03-10T06:37:46.888Z,50.76
2017-03-10T06:38:27.539Z,50.85
2017-03-10T06:39:08.178Z,50.85
2017-03-10T06:39:48.812Z,50.76
2017-03-10T06:40:29.464Z,51.24
2017-03-10T06:41:10.093Z,50.95
2017-03-10T06:41:50.725Z,50.85
2017-03-10T06:42:31.366Z,51.05
2017-03-10T06:43:11.990Z,51.05
2017-03-10T06:43:52.634Z,51.05
2017-03-10T06:44:33.263Z,51.14
2017-03-10T06:45:13.889Z,50.95
2017-03-10T06:45:54.518Z,50.66
2017-03-10T06:46:35.158Z,50.76
2017-03-10T06:47:15.799Z,50.76
2017-03-10T06:47:56.425Z,50.66
2017-03-10T06:48:37.070Z,50.66
2017-03-10T06:49:17.683Z,50.66
2017-03-10T06:49:58.300Z,50.57
2017-03-10T06:50:38.926Z,50.85
2017-03-10T06:51:19.561Z,50.85
2017-03-10T06:52:00.195Z,50.76
2017-03-10T06:52:40.845Z,50.85
2017-03-10T06:53:21.485Z,50.85
2017-03-10T06:54:02.115Z,50.85
2017-03-10T06:54:42.806Z,50.85
2017-03-10T06:55:23.432Z,50.76
2017-03-10T06:56:04.065Z,50.27
2017-03-10T06:56:44.701Z,50.66
2017-03-10T06:57:25.336Z,50.37
2017-03-10T06:58:05.966Z,50.47
2017-03-10T06:58:46.615Z,50.66
2017-03-10T06:59:27.298Z,50.27
2017-03-10T07:00:07.932Z,50.66
2017-03-10T07:00:48.570Z,50.37
2017-03-10T07:01:29.205Z,50.37
2017-03-10T07:02:09.838Z,50.37
2017-03-10T07:02:50.483Z,50.57
2017-03-10T07:03:31.169Z,50.37
2017-03-10T07:04:11.786Z,50.57
2017-03-10T07:04:52.435Z,50.76
2017-03-10T07:05:33.105Z,50.85
2017-03-10T07:06:13.796Z,50.76
2017-03-10T07:06:54.385Z,50.66
2017-03-10T07:07:35.023Z,50.27
2017-03-10T07:08:15.649Z,50.47
2017-03-10T07:08:56.265Z,50.27
2017-03-10T07:09:36.990Z,50.37
2017-03-10T07:10:17.629Z,50.09
2017-03-10T07:10:58.278Z,50.37
2017-03-10T07:11:38.911Z,50.27
2017-03-10T07:12:19.531Z,50.27
2017-03-10T07:13:00.171Z,50.37
2017-03-10T07:13:40.854Z,50.47
2017-03-10T07:14:21.491Z,50.57
2017-03-10T07:15:02.131Z,50.57
2017-03-10T07:15:42.764Z,50.27
2017-03-10T07:16:23.392Z,50.37
2017-03-10T07:17:04.042Z,50.27
2017-03-10T07:17:44.797Z,50.27
2017-03-10T07:18:25.418Z,50.47
2017-03-10T07:19:06.060Z,50.57
2017-03-10T07:19:46.726Z,50.47
2017-03-10T07:20:27.362Z,50.57
2017-03-10T07:21:07.987Z,50.57
2017-03-10T07:21:48.623Z,50.57
2017-03-10T07:22:29.277Z,50.57
2017-03-10T07:23:09.920Z,50.57
2017-03-10T07:23:50.625Z,50.57
2017-03-10T07:24:31.253Z,50.57
2017-03-10T07:25:11.893Z,50.37
2017-03-10T07:25:52.556Z,50.57
2017-03-10T07:26:33.196Z,50.27
2017-03-10T07:27:13.833Z,50.47
2017-03-10T07:27:54.457Z,50.47
2017-03-10T07:28:35.126Z,50.27
2017-03-10T07:29:15.774Z,50.47
2017-03-10T07:29:56.419Z,50.47
2017-03-10T07:30:37.160Z,50.37
2017-03-10T07:31:17.807Z,50.57
2017-03-10T07:31:58.437Z,50.57
2017-03-10T07:32:39.089Z,50.57
2017-03-10T07:33:20.445Z,50.47
2017-03-10T07:34:01.095Z,50.47
2017-03-10T07:34:41.758Z,50.57
2017-03-10T07:35:22.399Z,50.47
2017-03-10T07:36:03.043Z,50.47
2017-03-10T07:36:43.695Z,50.47
2017-03-10T07:37:24.346Z,50.37
2017-03-10T07:38:04.990Z,50.66
2017-03-10T07:38:45.668Z,50.27
2017-03-10T07:39:26.295Z,50.37
2017-03-10T07:40:06.938Z,50.37
2017-03-10T07:40:47.623Z,50.37
2017-03-10T07:41:28.254Z,50.57
2017-03-10T07:42:08.906Z,50.27
2017-03-10T07:42:49.588Z,50.27
2017-03-10T07:43:30.188Z,50.37
2017-03-10T07:44:10.813Z,50.37
2017-03-10T07:44:51.440Z,50.57
2017-03-10T07:45:32.096Z,50.66
2017-03-10T07:46:12.736Z,50.57
2017-03-10T07:46:53.498Z,50.66
2017-03-10T07:47:34.139Z,50.37
2017-03-10T07:48:14.775Z,50.37
2017-03-10T07:48:55.419Z,50.57
2017-03-10T07:49:36.084Z,50.27
2017-03-10T07:50:16.726Z,50.47
2017-03-10T07:50:57.364Z,50.66
2017-03-10T07:51:38.004Z,50.47
2017-03-10T07:52:18.643Z,50.57
2017-03-10T07:52:59.399Z,50.47
2017-03-10T07:53:40.031Z,50.37
2017-03-10T07:54:20.711Z,50.66
2017-03-10T07:55:01.338Z,50.47
2017-03-10T07:55:41.990Z,50.57
2017-03-10T07:56:22.626Z,50.47
2017-03-10T07:57:03.255Z,50.37
2017-03-10T07:57:43.888Z,50.47
2017-03-10T07:58:24.520Z,50.47
2017-03-10T07:59:05.153Z,50.27
2017-03-10T07:59:45.798Z,50.57
2017-03-10T08:00:26.418Z,50.57
2017-03-10T08:01:07.058Z,50.47
2017-03-10T08:01:47.716Z,50.66
2017-03-10T08:02:28.391Z,50.37
2017-03-10T08:03:09.049Z,50.57
2017-03-10T08:03:49.669Z,50.57
2017-03-10T08:04:30.328Z,50.27
2017-03-10T08:05:10.974Z,50.27
2017-03-10T08:05:51.706Z,50.57
2017-03-10T08:06:32.368Z,50.47
2017-03-10T08:07:13.092Z,50.09
2017-03-10T08:07:53.741Z,50.57
2017-03-10T08:08:34.402Z,50.47
2017-03-10T08:09:15.041Z,50.57
2017-03-10T08:09:55.684Z,50.57
2017-03-10T08:10:36.347Z,50.47
2017-03-10T08:11:16.993Z,50.47
2017-03-10T08:11:57.687Z,50.37
2017-03-10T08:12:38.339Z,50.66
2017-03-10T08:13:18.972Z,50.37
2017-03-10T08:13:59.624Z,50.57
2017-03-10T08:14:40.344Z,50.57
2017-03-10T08:15:20.989Z,50.27
2017-03-10T08:16:01.633Z,50.37
2017-03-10T08:16:42.257Z,50.37
2017-03-10T08:17:22.908Z,50.27
2017-03-10T08:18:03.562Z,50.37
2017-03-10T08:18:44.211Z,50.57
2017-03-10T08:19:24.838Z,50.37
2017-03-10T08:20:05.484Z,50.37
2017-03-10T08:20:46.148Z,50.47
2017-03-10T08:21:26.787Z,50.37
2017-03-10T08:22:07.409Z,50.66
2017-03-10T08:22:48.041Z,50.66
2017-03-10T08:23:28.686Z,50.37
2017-03-10T08:24:09.953Z,50.37
2017-03-10T08:24:50.601Z,50.47
2017-03-10T08:25:31.226Z,50.47
2017-03-10T08:26:11.876Z,50.27
2017-03-10T08:26:52.543Z,50.37
2017-03-10T08:27:33.245Z,50.47
2017-03-10T08:28:13.883Z,50.57
2017-03-10T08:28:54.519Z,50.37
2017-03-10T08:29:35.173Z,50.37
2017-03-10T08:30:15.833Z,50.27
2017-03-10T08:30:56.522Z,50.37
2017-03-10T08:31:37.161Z,50.47
2017-03-10T08:32:17.791Z,50.47
2017-03-10T08:32:58.443Z,50.27
2017-03-10T08:33:39.096Z,50.57
2017-03-10T08:34:19.801Z,50.27
2017-03-10T08:35:00.446Z,50.57
2017-03-10T08:35:41.066Z,50.47
2017-03-10T08:36:21.707Z,50.47
2017-03-10T08:37:02.349Z,50.47
2017-03-10T08:37:42.974Z,50.47
2017-03-10T08:38:23.596Z,50.37
2017-03-10T08:39:04.225Z,50.66
2017-03-10T08:39:44.866Z,50.66
2017-03-10T08:40:25.555Z,50.57
2017-03-10T08:41:06.176Z,50.27
2017-03-10T08:41:46.828Z,50.47
2017-03-10T08:42:27.481Z,50.57
2017-03-10T08:43:08.164Z,50.47
2017-03-10T08:43:48.802Z,50.47
2017-03-10T08:44:29.435Z,50.27
2017-03-10T08:45:10.128Z,50.47